Time;durP1;ratioP1;P1;durP2;ratioP2;P2;SDS_P1;SDS_P2;PMS_P1;PMS_P2;Temp;Humidity;BMP_temperature;BMP_pressure;BME280_temperature;BME280_humidity;BME280_pressure;Samples;Min_cycle;Max_cycle;Signal;HPM_P1;HPM_P2
2022/10/12 00:02:08;;;;;;;16.77;12.80;;;14.00;99.90;;;;;;4845956;29;20576;-88
2022/10/12 00:04:34;;;;;;;23.70;14.53;;;14.00;99.90;;;;;;4845829;29;20188;-88
2022/10/12 00:07:00;;;;;;;22.73;13.77;;;14.00;99.90;;;;;;4845713;29;20200;-88
2022/10/12 00:09:25;;;;;;;16.93;13.57;;;13.90;99.90;;;;;;4846259;29;20200;-88
2022/10/12 00:11:51;;;;;;;16.67;12.27;;;13.90;99.90;;;;;;4845382;29;20220;-88
2022/10/12 00:14:17;;;;;;;18.60;12.43;;;13.90;99.90;;;;;;4861293;29;20185;-88
2022/10/12 00:16:43;;;;;;;17.90;13.00;;;13.90;99.90;;;;;;4846356;29;20650;-88
2022/10/12 00:19:12;;;;;;;19.33;13.90;;;13.90;99.90;;;;;;4847536;29;20202;-88
2022/10/12 00:21:38;;;;;;;19.97;14.33;;;13.80;99.90;;;;;;4847419;29;20210;-87
2022/10/12 00:24:04;;;;;;;17.57;12.97;;;13.80;99.90;;;;;;4847841;29;20193;-88
2022/10/12 00:26:32;;;;;;;18.53;13.90;;;13.70;99.90;;;;;;4843955;29;20322;-88
2022/10/12 00:29:00;;;;;;;20.80;13.53;;;13.70;99.90;;;;;;4842134;29;20197;-88
2022/10/12 00:31:28;;;;;;;16.60;12.77;;;13.70;99.90;;;;;;4845180;29;20217;-88
2022/10/12 00:33:54;;;;;;;18.47;13.33;;;13.80;99.90;;;;;;4845364;29;20585;-88
2022/10/12 00:36:25;;;;;;;16.37;12.57;;;13.80;99.90;;;;;;4845623;29;20196;-88
2022/10/12 00:38:53;;;;;;;15.77;13.13;;;13.80;99.90;;;;;;4845609;29;20241;-88
2022/10/12 00:41:22;;;;;;;21.33;14.60;;;13.80;99.90;;;;;;4842171;29;20213;-88
2022/10/12 00:43:49;;;;;;;16.63;12.97;;;13.80;99.90;;;;;;4857717;29;20280;-88
2022/10/12 00:46:40;;;;;;;21.40;14.73;;;13.80;99.90;;;;;;4842103;29;20196;-88
2022/10/12 00:49:23;;;;;;;20.73;15.00;;;13.80;99.90;;;;;;4857591;29;20232;-88
2022/10/12 00:51:57;;;;;;;23.03;15.30;;;13.80;99.90;;;;;;4841811;29;20328;-88
2022/10/12 00:54:31;;;;;;;22.50;15.63;;;13.80;99.90;;;;;;4842004;29;20185;-88
2022/10/12 00:56:58;;;;;;;18.30;13.63;;;13.90;99.90;;;;;;4841919;29;20237;-88
2022/10/12 00:59:49;;;;;;;18.90;15.00;;;13.90;99.90;;;;;;4857212;29;20177;-88
2022/10/12 01:02:18;;;;;;;22.13;16.17;;;13.90;99.90;;;;;;4841276;29;20253;-88
2022/10/12 01:04:45;;;;;;;24.67;18.10;;;13.90;99.90;;;;;;4844429;29;20189;-88
2022/10/12 01:07:15;;;;;;;23.73;16.80;;;13.90;99.90;;;;;;4844868;29;20192;-88
2022/10/12 01:09:41;;;;;;;24.63;17.37;;;13.90;99.90;;;;;;4860065;29;20196;-88
2022/10/12 01:12:08;;;;;;;24.03;18.07;;;13.90;99.90;;;;;;4859951;29;20223;-88
2022/10/12 01:14:34;;;;;;;29.33;17.73;;;13.90;99.90;;;;;;4859985;29;20209;-88
2022/10/12 01:17:22;;;;;;;26.77;18.90;;;13.90;99.90;;;;;;4859716;29;20283;-88
2022/10/12 01:20:15;;;;;;;26.60;18.13;;;13.90;99.90;;;;;;4860209;29;20177;-88
2022/10/12 01:23:01;;;;;;;29.53;17.83;;;13.90;99.90;;;;;;4859160;29;20264;-88
2022/10/12 01:26:11;;;;;;;29.70;19.80;;;13.90;99.90;;;;;;4859854;29;20225;-88
2022/10/12 01:28:40;;;;;;;29.47;20.03;;;13.90;99.90;;;;;;4859826;29;20188;-88
2022/10/12 01:31:18;;;;;;;28.93;19.33;;;13.90;99.90;;;;;;4859743;29;20216;-87
2022/10/12 01:33:50;;;;;;;25.83;17.87;;;13.90;99.90;;;;;;4859923;29;20216;-88
2022/10/12 01:36:34;;;;;;;25.40;18.70;;;13.80;99.90;;;;;;4844335;29;20203;-89
2022/10/12 01:39:11;;;;;;;27.20;18.30;;;13.80;99.90;;;;;;4844284;29;20193;-88
2022/10/12 01:41:52;;;;;;;26.17;18.43;;;13.80;99.90;;;;;;4841084;29;20241;-88
2022/10/12 01:44:23;;;;;;;22.60;17.03;;;13.80;99.90;;;;;;4841116;29;20193;-88
2022/10/12 01:46:52;;;;;;;24.23;17.00;;;13.80;99.90;;;;;;4841223;29;20238;-88
2022/10/12 01:49:38;;;;;;;28.53;17.40;;;13.80;99.90;;;;;;4859443;29;20555;-88
2022/10/12 01:52:13;;;;;;;25.70;16.87;;;13.80;99.90;;;;;;4874871;29;20228;-88
2022/10/12 01:54:46;;;;;;;21.43;16.67;;;13.70;99.90;;;;;;4844102;29;20185;-89
2022/10/12 01:57:41;;;;;;;28.83;16.30;;;13.80;99.90;;;;;;4844071;29;20237;-88
2022/10/12 02:00:10;;;;;;;22.40;15.37;;;13.80;99.90;;;;;;4844067;29;20184;-88
2022/10/12 02:03:09;;;;;;;18.03;14.07;;;13.70;99.90;;;;;;4843884;29;20201;-88
2022/10/12 02:05:49;;;;;;;18.10;14.80;;;13.70;99.90;;;;;;4843923;29;20204;-88
2022/10/12 02:08:21;;;;;;;20.60;15.27;;;13.70;99.90;;;;;;4843741;29;20190;-87
2022/10/12 02:11:22;;;;;;;21.87;15.50;;;13.70;99.90;;;;;;4843795;29;20196;-88
2022/10/12 02:13:58;;;;;;;21.67;16.27;;;13.70;99.90;;;;;;4843893;29;20184;-88
2022/10/12 02:16:31;;;;;;;24.40;17.33;;;13.70;99.90;;;;;;4844044;29;20239;-88
2022/10/12 02:19:03;;;;;;;24.60;17.03;;;13.60;99.90;;;;;;4844028;29;20181;-88
2022/10/12 02:21:33;;;;;;;24.23;16.90;;;13.60;99.90;;;;;;4840840;29;20304;-88
2022/10/12 02:24:04;;;;;;;25.00;16.13;;;13.60;99.90;;;;;;4840623;29;20198;-87
2022/10/12 02:26:33;;;;;;;22.67;16.83;;;13.60;99.90;;;;;;4840784;29;20187;-88
2022/10/12 02:29:02;;;;;;;24.53;17.63;;;13.60;99.90;;;;;;4840559;29;20205;-88
2022/10/12 02:31:46;;;;;;;24.17;16.60;;;13.60;99.90;;;;;;4855806;29;20225;-88
2022/10/12 02:34:16;;;;;;;22.10;16.27;;;13.60;99.90;;;;;;4842786;29;20177;-88
2022/10/12 02:37:08;;;;;;;19.17;16.17;;;13.70;99.90;;;;;;4843723;29;20273;-88
2022/10/12 02:40:18;;;;;;;25.30;17.43;;;13.70;99.90;;;;;;4847251;29;20204;-88
2022/10/12 02:42:50;;;;;;;19.83;16.07;;;13.70;99.90;;;;;;4846127;29;20201;-88
2022/10/12 02:45:18;;;;;;;19.77;15.93;;;13.70;99.90;;;;;;4860788;29;20193;-88
2022/10/12 02:47:46;;;;;;;21.27;17.07;;;13.80;99.90;;;;;;4847089;29;20188;-88
2022/10/12 02:50:14;;;;;;;20.57;15.67;;;13.70;99.90;;;;;;4847112;29;20192;-88
2022/10/12 02:52:40;;;;;;;25.40;17.07;;;13.70;99.90;;;;;;4847263;29;20248;-88
2022/10/12 02:55:06;;;;;;;27.50;17.37;;;13.80;99.90;;;;;;4847368;29;20185;-88
2022/10/12 02:57:32;;;;;;;22.03;17.43;;;13.80;99.90;;;;;;4846791;29;20188;-88
2022/10/12 02:59:58;;;;;;;20.67;16.27;;;13.80;99.90;;;;;;4847312;29;20184;-88
2022/10/12 03:02:38;;;;;;;23.37;16.17;;;13.80;99.90;;;;;;4828725;29;20358;-88
2022/10/12 03:05:04;;;;;;;22.10;17.80;;;13.80;99.90;;;;;;4859243;29;20233;-88
2022/10/12 03:07:30;;;;;;;23.20;16.73;;;13.80;99.90;;;;;;4828521;29;20223;-88
2022/10/12 03:09:56;;;;;;;27.67;18.60;;;13.80;99.90;;;;;;4828723;29;20224;-88
2022/10/12 03:12:21;;;;;;;25.23;18.90;;;13.70;99.90;;;;;;4843914;29;20225;-88
2022/10/12 03:14:47;;;;;;;26.43;19.20;;;13.80;99.90;;;;;;4843296;29;20261;-88
2022/10/12 03:17:13;;;;;;;26.83;19.33;;;13.70;99.90;;;;;;4861824;29;20230;-88
2022/10/12 03:19:42;;;;;;;28.67;19.23;;;13.70;99.90;;;;;;4862027;29;20200;-88
2022/10/12 03:22:08;;;;;;;27.77;20.27;;;13.70;99.90;;;;;;4861528;29;20329;-87
2022/10/12 03:24:34;;;;;;;28.10;21.00;;;13.70;99.90;;;;;;4862147;29;20279;-88
2022/10/12 03:26:59;;;;;;;28.60;19.30;;;13.70;99.90;;;;;;4861661;29;20189;-88
2022/10/12 03:29:25;;;;;;;29.97;20.10;;;13.60;99.90;;;;;;4861727;29;20200;-88
2022/10/12 03:31:51;;;;;;;28.07;20.73;;;13.60;99.90;;;;;;4861885;29;20236;-88
2022/10/12 03:34:17;;;;;;;25.97;18.97;;;13.60;99.90;;;;;;4861460;29;20184;-88
2022/10/12 03:36:46;;;;;;;25.70;18.43;;;13.60;99.90;;;;;;4846002;29;20185;-88
2022/10/12 03:39:12;;;;;;;27.40;20.60;;;13.60;99.90;;;;;;4861566;29;20217;-88
2022/10/12 03:41:38;;;;;;;29.73;20.27;;;13.60;99.90;;;;;;4846350;29;20212;-87
2022/10/12 03:44:04;;;;;;;29.90;21.23;;;13.60;99.90;;;;;;4843421;29;20238;-88
2022/10/12 03:46:36;;;;;;;27.47;20.13;;;13.60;99.90;;;;;;4845749;29;20666;-88
2022/10/12 03:49:04;;;;;;;25.90;20.63;;;13.60;99.90;;;;;;4845904;29;20283;-88
2022/10/12 03:51:34;;;;;;;29.97;21.63;;;13.60;99.90;;;;;;4862373;29;20216;-88
2022/10/12 03:57:31;;;;;;;31.20;20.83;;;13.50;99.90;;;;;;4861167;29;20188;-88
2022/10/12 03:59:57;;;;;;;31.83;22.30;;;13.40;99.90;;;;;;4843969;29;20395;-89
2022/10/12 04:02:23;;;;;;;31.67;22.47;;;13.40;99.90;;;;;;4844564;29;20216;-88
2022/10/12 04:04:49;;;;;;;30.77;22.97;;;13.40;99.90;;;;;;4861460;29;20219;-88
2022/10/12 04:07:15;;;;;;;27.13;19.70;;;13.40;99.90;;;;;;4861290;29;20208;-89
2022/10/12 04:09:41;;;;;;;36.63;22.13;;;13.40;99.90;;;;;;4861364;29;20275;-89
2022/10/12 04:12:07;;;;;;;35.23;23.53;;;13.40;99.90;;;;;;4861184;29;20225;-88
2022/10/12 04:14:33;;;;;;;31.90;23.47;;;13.40;99.90;;;;;;4861262;29;20184;-88
2022/10/12 04:17:06;;;;;;;41.30;24.37;;;13.40;99.90;;;;;;4860997;29;20217;-88
2022/10/12 04:19:32;;;;;;;33.73;24.70;;;13.40;99.90;;;;;;4861036;29;20240;-89
2022/10/12 04:21:57;;;;;;;40.23;25.37;;;13.40;99.90;;;;;;4845906;29;20204;-88
2022/10/12 04:24:23;;;;;;;33.80;22.13;;;13.40;99.90;;;;;;4846138;29;20283;-88
2022/10/12 04:26:49;;;;;;;42.07;25.20;;;13.50;99.90;;;;;;4846314;29;20193;-88
2022/10/12 04:29:15;;;;;;;38.50;24.40;;;13.50;99.90;;;;;;4843560;29;20209;-88
2022/10/12 04:31:41;;;;;;;38.83;25.00;;;13.50;99.90;;;;;;4859455;29;20213;-89
2022/10/12 04:34:10;;;;;;;36.83;23.63;;;13.50;99.90;;;;;;4859230;29;20196;-88
2022/10/12 04:36:36;;;;;;;40.03;24.90;;;13.50;99.90;;;;;;4846712;29;20185;-89
2022/10/12 04:39:02;;;;;;;35.37;24.87;;;13.50;99.90;;;;;;4846632;29;20264;-88
2022/10/12 04:41:28;;;;;;;37.47;24.57;;;13.50;99.90;;;;;;4846133;29;20311;-88
2022/10/12 04:43:54;;;;;;;41.43;25.60;;;13.50;99.90;;;;;;4846559;29;20605;-88
2022/10/12 04:46:20;;;;;;;37.43;25.57;;;13.50;99.90;;;;;;4847533;29;20196;-88
2022/10/12 04:48:46;;;;;;;42.60;28.03;;;13.50;99.90;;;;;;4847565;29;20193;-88
2022/10/12 04:51:12;;;;;;;42.97;28.60;;;13.50;99.90;;;;;;4854391;29;20300;-88
2022/10/12 04:53:38;;;;;;;40.77;27.90;;;13.50;99.90;;;;;;4857279;29;20180;-89
2022/10/12 04:56:05;;;;;;;45.97;30.00;;;13.50;99.90;;;;;;4878956;29;20191;-89
2022/10/12 04:58:32;;;;;;;43.67;27.10;;;13.50;99.90;;;;;;4869768;29;20219;-89
2022/10/12 05:00:59;;;;;;;39.27;27.00;;;13.50;99.90;;;;;;4843732;29;20193;-89
2022/10/12 05:03:37;;;;;;;37.57;26.27;;;13.50;99.90;;;;;;4828704;29;20193;-89
2022/10/12 05:06:03;;;;;;;43.80;26.10;;;13.50;99.90;;;;;;4852341;29;20191;-89
2022/10/12 05:08:29;;;;;;;41.17;27.00;;;13.50;99.90;;;;;;4856583;29;20196;-88
2022/10/12 05:10:57;;;;;;;40.70;26.90;;;13.40;99.90;;;;;;4860024;29;20252;-89
2022/10/12 05:13:22;;;;;;;41.97;27.13;;;13.40;99.90;;;;;;4850454;29;20192;-88
2022/10/12 05:15:48;;;;;;;37.70;24.97;;;13.40;99.90;;;;;;4844396;29;20256;-89
2022/10/12 05:18:14;;;;;;;41.13;27.23;;;13.40;99.90;;;;;;4842301;29;20189;-89
2022/10/12 05:20:40;;;;;;;42.47;28.00;;;13.30;99.90;;;;;;4856932;29;20189;-89
2022/10/12 05:23:06;;;;;;;40.10;25.10;;;13.30;99.90;;;;;;4845087;29;20280;-88
2022/10/12 05:25:35;;;;;;;37.97;25.83;;;13.30;99.90;;;;;;4841102;29;20337;-88
2022/10/12 05:28:01;;;;;;;42.03;26.63;;;13.30;99.90;;;;;;4841727;29;20178;-87
2022/10/12 05:30:28;;;;;;;39.27;26.63;;;13.30;99.90;;;;;;4842243;29;20260;-88
2022/10/12 05:32:54;;;;;;;42.13;27.57;;;13.30;99.90;;;;;;4864713;29;20228;-88
2022/10/12 05:35:20;;;;;;;40.63;27.17;;;13.30;99.90;;;;;;4859846;29;20195;-88
2022/10/12 05:37:46;;;;;;;41.93;27.27;;;13.40;99.90;;;;;;4874913;29;20237;-88
2022/10/12 05:40:14;;;;;;;42.47;28.53;;;13.40;99.90;;;;;;4859435;29;20226;-88
2022/10/12 05:42:40;;;;;;;42.03;26.47;;;13.40;99.90;;;;;;4859609;29;20256;-88
2022/10/12 05:45:06;;;;;;;45.00;28.13;;;13.40;99.90;;;;;;4859597;29;20197;-88
2022/10/12 05:47:33;;;;;;;42.53;26.60;;;13.40;99.90;;;;;;4864765;29;20192;-88
2022/10/12 05:50:03;;;;;;;40.00;26.33;;;13.40;99.90;;;;;;4843964;29;20248;-88
2022/10/12 05:52:29;;;;;;;42.27;26.97;;;13.40;99.90;;;;;;4843921;29;20223;-88
2022/10/12 05:54:55;;;;;;;39.77;25.03;;;13.40;99.90;;;;;;4844090;29;20195;-88
2022/10/12 05:57:21;;;;;;;46.47;29.27;;;13.30;99.90;;;;;;4844200;29;20184;-88
2022/10/12 05:59:46;;;;;;;42.37;27.20;;;13.40;99.90;;;;;;4843862;29;20292;-88
2022/10/12 06:02:14;;;;;;;46.10;27.47;;;13.40;99.90;;;;;;4844115;29;20295;-88
2022/10/12 06:04:41;;;;;;;42.93;27.13;;;13.40;99.90;;;;;;4843634;29;20189;-88
2022/10/12 06:07:07;;;;;;;47.33;29.73;;;13.30;99.90;;;;;;4858641;29;20212;-88
2022/10/12 06:09:37;;;;;;;49.83;29.40;;;13.30;99.90;;;;;;4856897;29;20228;-87
2022/10/12 06:12:21;;;;;;;45.80;28.13;;;13.30;99.90;;;;;;4858678;29;20319;-89
2022/10/12 06:14:46;;;;;;;48.03;29.27;;;13.20;99.90;;;;;;4859481;29;20172;-87
2022/10/12 06:17:12;;;;;;;48.50;27.50;;;13.20;99.90;;;;;;4843848;29;20635;-87
2022/10/12 06:19:38;;;;;;;45.73;26.90;;;13.30;99.90;;;;;;4858541;29;20188;-87
2022/10/12 06:22:04;;;;;;;45.80;28.10;;;13.30;99.90;;;;;;4843648;29;20330;-87
2022/10/12 06:24:30;;;;;;;43.90;27.33;;;13.30;99.90;;;;;;4843634;29;20332;-87
2022/10/12 06:26:56;;;;;;;42.13;27.23;;;13.30;99.90;;;;;;4843545;29;20193;-87
2022/10/12 06:29:22;;;;;;;43.77;27.23;;;13.30;99.90;;;;;;4843497;29;20192;-87
2022/10/12 06:31:49;;;;;;;43.73;28.40;;;13.30;99.90;;;;;;4843283;29;20220;-87
2022/10/12 06:34:15;;;;;;;44.10;27.90;;;13.40;99.90;;;;;;4843525;29;20208;-86
2022/10/12 06:36:41;;;;;;;45.60;28.60;;;13.40;99.90;;;;;;4858892;29;20264;-87
2022/10/12 06:39:08;;;;;;;45.33;28.03;;;13.40;99.90;;;;;;4843535;29;20192;-87
2022/10/12 06:41:34;;;;;;;40.50;27.47;;;13.40;99.90;;;;;;4843722;29;20265;-87
2022/10/12 06:44:07;;;;;;;40.93;28.30;;;13.50;99.90;;;;;;4874617;29;20275;-87
2022/10/12 06:46:33;;;;;;;42.50;27.77;;;13.50;99.90;;;;;;4843526;29;20243;-87
2022/10/12 06:48:59;;;;;;;40.43;26.03;;;13.60;99.90;;;;;;4843480;29;20193;-87
2022/10/12 06:51:24;;;;;;;39.47;26.13;;;13.60;99.90;;;;;;4843418;29;20223;-87
2022/10/12 06:53:54;;;;;;;40.37;24.47;;;13.60;99.90;;;;;;4843247;29;20188;-87
2022/10/12 06:56:20;;;;;;;39.60;26.53;;;13.60;99.90;;;;;;4872336;29;20184;-87
2022/10/12 06:58:46;;;;;;;40.57;27.00;;;13.60;99.90;;;;;;4842889;29;20264;-87
2022/10/12 07:01:12;;;;;;;43.73;26.33;;;13.60;99.90;;;;;;4843066;29;20291;-87
2022/10/12 07:03:38;;;;;;;43.07;27.77;;;13.60;99.90;;;;;;4842967;29;20224;-87
2022/10/12 07:06:08;;;;;;;41.73;25.57;;;13.60;99.90;;;;;;4843667;29;20235;-87
2022/10/12 07:08:35;;;;;;;41.90;26.23;;;13.70;99.90;;;;;;4843466;29;20197;-87
2022/10/12 07:11:33;;;;;;;42.93;25.77;;;13.70;99.90;;;;;;4842790;29;20181;-87
2022/10/12 07:13:59;;;;;;;41.53;26.07;;;13.70;99.90;;;;;;4874480;29;20185;-87
2022/10/12 07:16:25;;;;;;;41.13;26.07;;;13.80;99.90;;;;;;4843283;29;20213;-87
2022/10/12 07:18:51;;;;;;;40.70;26.47;;;13.80;99.90;;;;;;4843608;29;20630;-87
2022/10/12 07:22:00;;;;;;;38.77;25.80;;;13.80;99.90;;;;;;4845283;29;20288;-87
2022/10/12 07:24:34;;;;;;;38.60;25.80;;;13.90;99.90;;;;;;4847260;29;20184;-87
2022/10/12 07:27:04;;;;;;;36.00;24.47;;;13.90;99.90;;;;;;4846747;29;20282;-87
2022/10/12 07:29:31;;;;;;;35.23;23.93;;;13.90;99.90;;;;;;4862107;29;20201;-87
2022/10/12 07:31:58;;;;;;;37.97;26.40;;;13.90;99.90;;;;;;4846610;29;20216;-87
2022/10/12 07:34:27;;;;;;;39.60;25.57;;;13.90;99.90;;;;;;4862175;29;20237;-88
2022/10/12 07:36:55;;;;;;;33.13;22.63;;;14.00;99.90;;;;;;4876618;29;20204;-87
2022/10/12 07:39:22;;;;;;;38.63;24.90;;;14.00;99.90;;;;;;4845767;29;20192;-87
2022/10/12 07:41:48;;;;;;;37.03;24.83;;;14.00;99.90;;;;;;4846852;29;20201;-87
2022/10/12 07:44:15;;;;;;;35.73;24.13;;;14.10;99.90;;;;;;4860926;29;20189;-87
2022/10/12 07:46:41;;;;;;;35.03;23.80;;;14.10;99.90;;;;;;4846532;29;20212;-87
2022/10/12 07:49:07;;;;;;;30.57;22.07;;;14.10;99.90;;;;;;4865303;29;20189;-85
2022/10/12 07:51:33;;;;;;;36.20;23.77;;;14.10;99.90;;;;;;4851234;29;20235;-86
2022/10/12 07:53:59;;;;;;;35.43;23.23;;;14.20;99.90;;;;;;4846599;29;20192;-87
2022/10/12 07:56:26;;;;;;;33.23;23.67;;;14.20;99.90;;;;;;4846703;29;20184;-87
2022/10/12 07:58:54;;;;;;;32.97;22.43;;;14.20;99.90;;;;;;4846029;29;20188;-87
2022/10/12 08:01:23;;;;;;;35.13;25.30;;;14.30;99.90;;;;;;4846239;29;20213;-88
2022/10/12 08:03:49;;;;;;;29.40;21.83;;;14.30;99.90;;;;;;4846413;29;20272;-87
2022/10/12 08:06:21;;;;;;;26.77;20.10;;;14.30;99.90;;;;;;4846327;29;20221;-87
2022/10/12 08:08:47;;;;;;;28.27;19.97;;;14.40;99.90;;;;;;4861518;29;20248;-86
2022/10/12 08:11:18;;;;;;;35.03;22.70;;;14.40;99.90;;;;;;4845746;29;20216;-87
2022/10/12 08:13:45;;;;;;;31.00;21.23;;;14.50;99.90;;;;;;4846143;29;20185;-87
2022/10/12 08:16:13;;;;;;;32.23;21.87;;;14.50;99.90;;;;;;4861710;29;20189;-87
2022/10/12 08:18:39;;;;;;;31.00;21.43;;;14.60;99.90;;;;;;4846176;29;20217;-86
2022/10/12 08:21:29;;;;;;;34.47;22.03;;;14.60;99.90;;;;;;4845580;29;20200;-87
2022/10/12 08:23:55;;;;;;;32.73;21.93;;;14.70;99.90;;;;;;4846016;29;20173;-87
2022/10/12 08:26:21;;;;;;;25.83;18.13;;;14.70;99.90;;;;;;4861579;29;20253;-87
2022/10/12 08:28:47;;;;;;;26.47;19.07;;;14.70;99.90;;;;;;4861040;29;20197;-87
2022/10/12 08:31:15;;;;;;;25.87;18.90;;;14.70;99.90;;;;;;4845573;29;20224;-87
2022/10/12 08:33:41;;;;;;;29.67;19.57;;;14.70;99.90;;;;;;4846150;29;20185;-87
2022/10/12 08:36:07;;;;;;;27.37;19.80;;;14.80;99.90;;;;;;4861213;29;20183;-87
2022/10/12 08:38:37;;;;;;;25.50;18.93;;;14.80;99.90;;;;;;4861194;29;20303;-87
2022/10/12 08:41:19;;;;;;;28.17;19.17;;;14.80;99.90;;;;;;4846286;29;20201;-87
2022/10/12 08:44:00;;;;;;;23.87;17.93;;;14.80;99.90;;;;;;4844757;29;20181;-87
2022/10/12 08:46:27;;;;;;;28.17;18.17;;;14.60;99.90;;;;;;4860955;29;20184;-87
2022/10/12 08:49:11;;;;;;;27.47;17.80;;;14.70;99.90;;;;;;4860613;29;20213;-87
2022/10/12 08:51:50;;;;;;;24.10;17.47;;;14.70;99.90;;;;;;4845187;29;20272;-87
2022/10/12 08:54:23;;;;;;;27.27;18.57;;;14.80;99.90;;;;;;4845366;29;20172;-87
2022/10/12 08:56:52;;;;;;;27.10;17.97;;;14.70;99.90;;;;;;4860655;29;20181;-86
2022/10/12 08:59:18;;;;;;;28.80;19.10;;;14.80;99.90;;;;;;4860687;29;20176;-87
2022/10/12 09:02:12;;;;;;;25.73;17.53;;;14.80;99.90;;;;;;4860690;29;20268;-87
2022/10/12 09:04:44;;;;;;;23.57;15.97;;;14.80;99.90;;;;;;4845372;29;20188;-87
2022/10/12 09:07:26;;;;;;;28.30;18.57;;;14.80;99.90;;;;;;4844996;29;20185;-87
2022/10/12 09:10:10;;;;;;;25.17;17.63;;;14.80;99.90;;;;;;4829287;29;20659;-87
2022/10/12 09:13:19;;;;;;;25.57;18.77;;;14.90;99.90;;;;;;4841379;29;20214;-87
2022/10/12 09:15:52;;;;;;;25.00;16.83;;;14.80;99.90;;;;;;4826231;29;20201;-87
2022/10/12 09:18:35;;;;;;;20.47;14.37;;;14.90;99.90;;;;;;4841621;29;20173;-87
2022/10/12 09:21:05;;;;;;;20.77;15.43;;;14.90;99.90;;;;;;4826717;29;20178;-87
2022/10/12 09:23:36;;;;;;;26.60;17.97;;;15.00;99.90;;;;;;4826812;29;20222;-87
2022/10/12 09:26:17;;;;;;;22.27;15.63;;;15.00;99.90;;;;;;4841868;29;20209;-88
2022/10/12 09:28:55;;;;;;;19.73;13.63;;;15.10;99.90;;;;;;4826356;29;20190;-87
2022/10/12 09:31:48;;;;;;;23.13;14.97;;;15.10;99.90;;;;;;4826494;29;20272;-87
2022/10/12 09:34:14;;;;;;;27.97;17.10;;;15.20;99.90;;;;;;4826609;29;20264;-87
2022/10/12 09:36:41;;;;;;;21.77;14.27;;;15.20;99.90;;;;;;4856833;29;20182;-87
2022/10/12 09:39:15;;;;;;;24.33;16.10;;;15.30;99.90;;;;;;4826488;29;20586;-87
2022/10/12 09:41:43;;;;;;;21.17;14.27;;;15.40;99.90;;;;;;4826559;29;20216;-88
2022/10/12 09:44:33;;;;;;;27.13;16.60;;;15.40;99.90;;;;;;4825961;29;20279;-87
2022/10/12 09:47:02;;;;;;;18.03;13.80;;;15.50;99.90;;;;;;4834387;29;20184;-87
2022/10/12 09:49:46;;;;;;;18.33;12.60;;;15.50;99.90;;;;;;4844434;29;20305;-87
2022/10/12 09:52:16;;;;;;;23.83;16.30;;;15.60;99.90;;;;;;4844611;29;20220;-87
2022/10/12 09:54:49;;;;;;;20.23;14.00;;;15.70;99.90;;;;;;4844399;29;20188;-87
2022/10/12 09:57:34;;;;;;;18.87;13.63;;;15.70;99.90;;;;;;4843785;29;20302;-87
2022/10/12 10:00:07;;;;;;;19.23;12.83;;;15.70;99.90;;;;;;4844167;29;20188;-87
2022/10/12 10:02:47;;;;;;;20.73;13.37;;;15.70;99.90;;;;;;4847295;29;20216;-87
2022/10/12 10:05:21;;;;;;;20.70;14.27;;;15.80;99.90;;;;;;4841322;29;20200;-87
2022/10/12 10:07:47;;;;;;;20.30;12.83;;;15.80;99.90;;;;;;4844155;29;20191;-86
2022/10/12 10:10:20;;;;;;;21.13;13.07;;;15.80;99.90;;;;;;4844487;29;20173;-87
2022/10/12 10:12:54;;;;;;;16.33;11.70;;;15.80;99.90;;;;;;4843899;29;20216;-87
2022/10/12 10:15:32;;;;;;;16.43;11.90;;;15.80;99.90;;;;;;4859814;29;20176;-87
2022/10/12 10:18:04;;;;;;;18.20;11.43;;;15.80;99.90;;;;;;4843997;29;20185;-87
2022/10/12 10:20:49;;;;;;;17.03;11.60;;;15.90;99.90;;;;;;4859255;29;20191;-87
2022/10/12 10:23:42;;;;;;;16.63;11.67;;;15.90;99.90;;;;;;4859532;29;20173;-87
2022/10/12 10:26:12;;;;;;;13.40;10.47;;;15.90;99.90;;;;;;4857164;29;20196;-87
2022/10/12 10:28:40;;;;;;;14.57;9.97;;;15.90;99.90;;;;;;4843827;29;20212;-87
2022/10/12 10:31:21;;;;;;;13.80;10.83;;;15.90;99.90;;;;;;4857326;29;20261;-87
2022/10/12 10:34:08;;;;;;;12.60;9.47;;;16.00;99.90;;;;;;4855422;29;20192;-87
2022/10/12 10:36:39;;;;;;;16.07;10.47;;;16.10;99.90;;;;;;4859543;29;20192;-87
2022/10/12 10:39:14;;;;;;;19.13;10.47;;;16.10;99.90;;;;;;4845617;29;20250;-87
2022/10/12 10:41:42;;;;;;;17.07;10.03;;;16.20;99.90;;;;;;4840778;29;20205;-87
2022/10/12 10:44:25;;;;;;;13.27;8.77;;;16.30;99.90;;;;;;4840516;29;20250;-87
2022/10/12 10:46:53;;;;;;;13.83;7.67;;;16.40;99.90;;;;;;4858432;29;20188;-87
2022/10/12 10:49:47;;;;;;;12.33;7.67;;;16.50;99.90;;;;;;4859240;29;20199;-87
2022/10/12 10:52:34;;;;;;;11.73;7.80;;;16.60;99.90;;;;;;4856814;29;20323;-87
2022/10/12 10:55:09;;;;;;;12.00;8.53;;;16.50;99.90;;;;;;4859102;29;20184;-87
2022/10/12 10:57:39;;;;;;;9.77;7.00;;;16.60;99.90;;;;;;4862525;29;20243;-87
2022/10/12 11:00:27;;;;;;;13.90;7.47;;;16.70;99.90;;;;;;4851862;29;20193;-87
2022/10/12 11:02:59;;;;;;;11.18;7.45;;;16.80;99.90;;;;;;4847881;29;20211;-87
2022/10/12 11:05:39;;;;;;;13.05;6.95;;;16.80;99.90;;;;;;4875681;29;20199;-87
2022/10/12 11:08:14;;;;;;;10.30;7.65;;;16.80;99.90;;;;;;4831398;29;20288;-87
2022/10/12 11:10:55;;;;;;;11.63;8.13;;;16.90;99.90;;;;;;4862533;29;20184;-87
2022/10/12 11:13:23;;;;;;;9.95;7.32;;;17.00;99.90;;;;;;4862530;29;20261;-87
2022/10/12 11:15:55;;;;;;;10.88;7.47;;;17.00;99.90;;;;;;4862920;29;20192;-87
2022/10/12 11:18:32;;;;;;;11.88;7.32;;;17.00;99.90;;;;;;4862377;29;20221;-87
2022/10/12 11:21:06;;;;;;;12.82;7.65;;;17.00;99.90;;;;;;4862099;29;20195;-87
2022/10/12 11:23:50;;;;;;;10.63;7.90;;;17.00;99.90;;;;;;4862131;29;20267;-87
2022/10/12 11:26:40;;;;;;;12.57;8.07;;;17.00;99.90;;;;;;4862197;29;20181;-87
2022/10/12 11:29:16;;;;;;;10.57;8.38;;;17.00;99.90;;;;;;4862048;29;20236;-87
2022/10/12 11:31:55;;;;;;;12.65;7.35;;;17.00;99.90;;;;;;4861968;29;20244;-87
2022/10/12 11:34:24;;;;;;;18.65;8.98;;;17.10;99.90;;;;;;4861956;29;20192;-87
2022/10/12 11:36:53;;;;;;;10.95;8.40;;;17.10;99.90;;;;;;4861995;29;20218;-87
2022/10/12 11:39:37;;;;;;;12.02;7.60;;;17.10;99.90;;;;;;4850012;29;20198;-87
2022/10/12 11:42:06;;;;;;;11.00;7.65;;;17.10;99.90;;;;;;4847080;29;20220;-87
2022/10/12 11:44:43;;;;;;;13.75;8.15;;;17.10;99.90;;;;;;4862168;29;20191;-87
2022/10/12 11:47:24;;;;;;;8.98;6.68;;;16.90;99.90;;;;;;4861317;29;20634;-87
2022/10/12 11:49:54;;;;;;;7.70;6.30;;;17.00;99.90;;;;;;4861450;29;20184;-87
2022/10/12 11:52:22;;;;;;;9.35;7.05;;;17.10;99.90;;;;;;4853637;29;20274;-87
2022/10/12 11:55:22;;;;;;;10.48;6.72;;;17.10;99.90;;;;;;4828328;29;20230;-87
2022/10/12 11:57:50;;;;;;;10.63;6.47;;;17.20;99.90;;;;;;4843217;29;20170;-87
2022/10/12 12:00:21;;;;;;;13.48;6.90;;;17.20;99.90;;;;;;4852503;29;20177;-87
2022/10/12 12:03:10;;;;;;;8.60;6.28;;;17.30;99.90;;;;;;4877002;29;20235;-88
2022/10/12 12:05:36;;;;;;;10.13;6.47;;;17.40;99.90;;;;;;4828454;29;20731;-87
2022/10/12 12:08:02;;;;;;;7.57;6.25;;;17.50;99.90;;;;;;4855270;29;20184;-87
2022/10/12 12:10:30;;;;;;;11.15;6.35;;;17.50;99.90;;;;;;4861486;29;20248;-87
2022/10/12 12:13:16;;;;;;;7.55;5.63;;;17.40;99.90;;;;;;4861462;29;20212;-88
2022/10/12 12:15:48;;;;;;;11.32;5.95;;;17.40;99.90;;;;;;4861129;29;20213;-87
2022/10/12 12:18:20;;;;;;;8.43;5.25;;;17.50;99.90;;;;;;4846122;29;20199;-87
2022/10/12 12:20:45;;;;;;;8.18;5.18;;;17.70;99.90;;;;;;4880520;29;20205;-87
2022/10/12 12:23:52;;;;;;;7.25;4.60;;;17.70;99.90;;;;;;4861359;29;20177;-87
2022/10/12 12:26:20;;;;;;;10.30;5.57;;;17.80;99.90;;;;;;4860948;29;20216;-87
2022/10/12 12:29:10;;;;;;;14.65;6.07;;;17.90;99.90;;;;;;4860836;29;20197;-87
2022/10/12 12:31:37;;;;;;;8.02;5.53;;;18.00;99.90;;;;;;4861009;29;20228;-87
2022/10/12 12:34:10;;;;;;;9.13;4.68;;;18.00;99.90;;;;;;4861020;29;20188;-87
2022/10/12 12:36:41;;;;;;;7.22;5.07;;;18.00;99.90;;;;;;4861053;29;20197;-87
2022/10/12 12:39:22;;;;;;;8.48;5.50;;;18.00;99.90;;;;;;4861778;29;20190;-87
2022/10/12 12:41:48;;;;;;;6.03;4.75;;;18.10;99.90;;;;;;4862779;29;20247;-87
2022/10/12 12:44:33;;;;;;;6.10;4.97;;;18.10;99.90;;;;;;4860217;29;20220;-87
2022/10/12 12:46:59;;;;;;;8.23;4.55;;;18.10;99.90;;;;;;4860750;29;20208;-87
2022/10/12 12:49:36;;;;;;;6.35;5.25;;;18.20;99.90;;;;;;4860514;29;20199;-87
2022/10/12 12:52:10;;;;;;;6.55;4.25;;;18.20;99.90;;;;;;4860519;29;20209;-87
2022/10/12 12:54:53;;;;;;;8.13;4.82;;;18.30;99.90;;;;;;4876094;29;20197;-87
2022/10/12 12:57:28;;;;;;;9.02;4.70;;;18.40;99.90;;;;;;4860175;29;20177;-87
2022/10/12 13:00:03;;;;;;;7.10;4.15;;;18.20;99.90;;;;;;4860502;29;20177;-87